Strona główna
METAR-TAF:

METAR-TAF

Lotnisko :

Port lotniczy Larnaka

Larnaka, Cypr

Szerokość geograficzna: 34-53N, Długość geograficzna: 033-38E, wysokość: 2 m

Aktualna obserwacja pogody

Raport powstał 38 minut temu, godzina 22:30 UTC
Cisza
Temperatura 9°C
Wilgotność 93%
Ciśnienie 1020 hPa
Widzialność 10 km lub więcej
Brak chmur poniżej 1500 m i brak chmur cumulonimbus

METAR: LCLK 192230Z 00000KT CAVOK 09/08 Q1020 NOSIG

czas: 01:08 (23:08 UTC)

Prognoza

Raport powstał 5 godziny i 38 minut temu, godzina 17:30 UTC
Prognoza ważna od 19 godzina 18 UTC do 20 godzina 18 UTC
Wiatr 6 kt od północny zachód
Widzialność 10 km lub więcej
Mało chmury na wysokości 2500 ft
Stopniowe zmiany
od 20 godzina 08 UTC do 20 godzina 12 UTC
Wiatr 12 kt od południowo-południowy zachód
Stopniowe zmiany
od 20 godzina 15 UTC do 20 godzina 18 UTC
Wiatr 6 kt od północny zachód

TAF: LCLK 191730Z 1918/2018 32006KT 9999 FEW025 BECMG 2008/2012 21012KT BECMG 2015/2018 32006KT

Obserwacja i prognoza pogody dla ponad 4000 lotnisk (raport METAR i TAF).

Dostępne stacje oznaczono żółtymi i czerwonymi punktami na mapie.

Najedź kursorem aby zobaczyć nazwę stacji.

Kliknij aby zobaczyć obserwacje i prognozy pogody.

Aby zmienić mapę: kliknij na zielony przycisk z czarnym krzyżykiem, aby powiększyć; na zielony przycisk z myślnikiem, aby pomniejszyć; na zielone strzałki, aby przejść do map sąsiednich.


METAR-TAF: